createdAt,value
2023-04-01T00:02:28.072Z,80.39
2023-04-01T00:05:12.649Z,80.27
2023-04-01T00:08:05.933Z,80.32
2023-04-01T00:10:59.272Z,80.27
2023-04-01T00:13:52.331Z,80.29
2023-04-01T00:16:25.106Z,80.35
2023-04-01T00:19:17.999Z,80.37
2023-04-01T00:22:01.609Z,80.67
2023-04-01T00:24:44.363Z,80.60
2023-04-01T00:27:20.763Z,80.84
2023-04-01T00:29:53.771Z,80.70
2023-04-01T00:32:37.560Z,80.83
2023-04-01T00:35:30.950Z,80.86
2023-04-01T00:38:25.017Z,80.95
2023-04-01T00:41:01.772Z,80.94
2023-04-01T00:43:36.061Z,81.00
2023-04-01T00:46:20.078Z,81.04
2023-04-01T00:48:55.951Z,81.03
2023-04-01T00:51:36.583Z,81.25
2023-04-01T00:54:10.983Z,81.31
2023-04-01T00:56:49.803Z,81.46
2023-04-01T00:59:46.011Z,81.62
2023-04-01T01:02:19.529Z,81.90
2023-04-01T01:05:14.025Z,82.04
2023-04-01T01:08:01.237Z,82.11
2023-04-01T01:10:40.393Z,82.16
2023-04-01T01:13:18.783Z,82.10
2023-04-01T01:16:06.799Z,82.12
2023-04-01T01:19:10.608Z,82.03
2023-04-01T01:22:20.534Z,81.94
2023-04-01T01:25:11.230Z,82.08
2023-04-01T01:28:15.212Z,82.05
2023-04-01T01:31:05.023Z,82.23
2023-04-01T01:34:08.822Z,82.16
2023-04-01T01:36:48.242Z,82.12
2023-04-01T01:39:37.090Z,82.26
2023-04-01T01:42:32.785Z,82.35
2023-04-01T01:45:08.625Z,82.33
2023-04-01T01:48:09.465Z,82.51
2023-04-01T01:51:02.925Z,82.56
2023-04-01T01:53:41.081Z,82.59
2023-04-01T01:56:16.752Z,82.78
2023-04-01T01:58:54.193Z,82.67
2023-04-01T02:01:32.572Z,82.85
2023-04-01T02:04:16.154Z,82.98
2023-04-01T02:07:14.280Z,83.09
2023-04-01T02:09:58.465Z,83.11
2023-04-01T02:12:53.336Z,83.30
2023-04-01T02:15:51.063Z,83.27
2023-04-01T02:18:26.825Z,83.29
2023-04-01T02:21:07.848Z,83.33
2023-04-01T02:23:46.614Z,83.30
2023-04-01T02:26:19.970Z,83.39
2023-04-01T02:29:14.075Z,83.38
2023-04-01T02:31:58.222Z,83.30
2023-04-01T02:34:51.807Z,83.19
2023-04-01T02:37:27.420Z,83.13
2023-04-01T02:40:03.477Z,83.06
2023-04-01T02:42:46.758Z,83.15
2023-04-01T02:45:22.887Z,83.33
2023-04-01T02:48:15.799Z,83.31
2023-04-01T02:50:48.764Z,83.31
2023-04-01T02:53:31.763Z,83.34
2023-04-01T02:56:24.518Z,83.43
2023-04-01T02:58:57.985Z,83.50
2023-04-01T03:01:42.646Z,83.40
2023-04-01T03:04:18.288Z,83.37
2023-04-01T03:06:53.764Z,83.31
2023-04-01T03:09:31.194Z,83.32
2023-04-01T03:12:03.987Z,83.26
2023-04-01T03:14:46.830Z,83.08
2023-04-01T03:17:29.567Z,82.90
2023-04-01T03:20:22.432Z,82.93
2023-04-01T03:22:56.440Z,82.72
2023-04-01T03:25:38.242Z,82.75
2023-04-01T03:28:30.986Z,82.64
2023-04-01T03:31:07.322Z,82.49
2023-04-01T03:33:54.000Z,82.49
2023-04-01T03:36:36.765Z,82.44
2023-04-01T03:39:23.481Z,82.36
2023-04-01T03:41:59.339Z,82.39
2023-04-01T03:44:43.264Z,82.42
2023-04-01T03:47:37.774Z,82.40
2023-04-01T03:50:12.350Z,82.45
2023-04-01T03:52:45.277Z,82.36
2023-04-01T03:55:19.141Z,82.48
2023-04-01T03:58:12.210Z,82.37
2023-04-01T04:00:47.592Z,82.28
2023-04-01T04:03:41.702Z,82.12
2023-04-01T04:06:35.177Z,81.56
2023-04-01T04:09:29.408Z,81.28
2023-04-01T04:12:22.197Z,81.08
2023-04-01T04:15:07.272Z,80.91
2023-04-01T04:17:40.444Z,80.73
2023-04-01T04:20:16.925Z,80.61
2023-04-01T04:22:52.843Z,80.56
2023-04-01T04:25:29.430Z,80.49
2023-04-01T04:28:04.621Z,80.24
2023-04-01T04:30:37.170Z,80.22
2023-04-01T04:33:33.299Z,80.08
2023-04-01T04:36:10.530Z,80.06
2023-04-01T04:39:04.371Z,79.92
2023-04-01T04:41:57.159Z,79.97
2023-04-01T04:44:34.696Z,79.61
2023-04-01T04:47:07.632Z,79.67
2023-04-01T04:49:43.393Z,79.70
2023-04-01T04:52:36.291Z,79.53
2023-04-01T04:55:29.454Z,79.42
2023-04-01T04:58:22.751Z,79.43
2023-04-01T05:01:17.528Z,79.29
2023-04-01T05:03:51.529Z,79.19
2023-04-01T05:06:34.393Z,79.13
2023-04-01T05:09:10.990Z,78.96
2023-04-01T05:12:04.018Z,78.83
2023-04-01T05:14:50.983Z,78.71
2023-04-01T05:17:31.297Z,78.48
2023-04-01T05:20:24.186Z,78.43
2023-04-01T05:23:01.824Z,78.26
2023-04-01T05:25:46.042Z,78.03
2023-04-01T05:28:21.507Z,77.84
2023-04-01T05:31:07.227Z,77.73
2023-04-01T05:34:00.480Z,77.02
2023-04-01T05:36:34.086Z,77.01
2023-04-01T05:39:07.095Z,76.73
2023-04-01T05:41:42.870Z,76.57
2023-04-01T05:44:18.180Z,76.34
2023-04-01T05:47:07.200Z,76.08
2023-04-01T05:49:51.184Z,76.00
2023-04-01T05:52:25.070Z,75.31
2023-04-01T05:55:01.454Z,75.19
2023-04-01T05:57:39.414Z,74.48
2023-04-01T06:00:23.022Z,74.14
2023-04-01T06:03:06.148Z,73.04
2023-04-01T06:05:46.044Z,72.73
2023-04-01T06:08:20.973Z,72.13
2023-04-01T06:11:25.940Z,72.15
2023-04-01T06:14:26.074Z,71.57
2023-04-01T06:17:29.739Z,70.98
2023-04-01T06:20:14.738Z,70.83
2023-04-01T06:23:09.923Z,71.37
2023-04-01T06:26:20.566Z,71.03
2023-04-01T06:29:46.811Z,69.82
2023-04-01T06:33:02.331Z,69.47
2023-04-01T06:36:13.674Z,68.32
2023-04-01T06:39:20.581Z,67.64
2023-04-01T06:42:31.816Z,65.17
2023-04-01T06:45:38.554Z,65.25
2023-04-01T06:48:44.563Z,65.08
2023-04-01T06:51:52.781Z,65.17
2023-04-01T06:54:51.057Z,65.30
2023-04-01T06:57:46.463Z,65.03
2023-04-01T07:00:33.777Z,64.61
2023-04-01T07:03:34.317Z,64.84
2023-04-01T07:06:33.662Z,64.94
2023-04-01T07:09:32.931Z,64.49
2023-04-01T07:12:48.025Z,64.98
2023-04-01T07:15:53.287Z,64.23
2023-04-01T07:18:51.437Z,63.71
2023-04-01T07:22:07.048Z,63.38
2023-04-01T07:25:04.021Z,62.79
2023-04-01T07:28:03.914Z,62.49
2023-04-01T07:31:16.487Z,61.83
2023-04-01T07:34:08.272Z,60.86
2023-04-01T07:37:02.470Z,60.44
2023-04-01T07:39:57.393Z,59.75
2023-04-01T07:43:12.361Z,58.69
2023-04-01T07:46:17.261Z,58.08
2023-04-01T07:49:09.271Z,57.37
2023-04-01T07:52:07.053Z,57.39
2023-04-01T07:55:08.632Z,56.98
2023-04-01T07:57:59.544Z,57.52
2023-04-01T08:00:44.461Z,57.96
2023-04-01T08:03:57.248Z,58.42
2023-04-01T08:06:55.732Z,59.25
2023-04-01T08:09:39.764Z,58.64
2023-04-01T08:13:19.858Z,58.85
2023-04-01T08:16:26.386Z,58.60
2023-04-01T08:19:24.184Z,56.99
2023-04-01T08:22:22.563Z,56.76
2023-04-01T08:25:09.017Z,56.53
2023-04-01T08:27:59.533Z,56.74
2023-04-01T08:30:44.114Z,56.75
2023-04-01T08:33:24.147Z,56.88
2023-04-01T08:36:08.665Z,57.48
2023-04-01T08:39:06.370Z,56.37
2023-04-01T08:42:32.335Z,56.16
2023-04-01T08:45:57.758Z,56.93
2023-04-01T08:49:01.859Z,56.59
2023-04-01T08:52:14.171Z,55.22
2023-04-01T08:55:38.606Z,56.03
2023-04-01T08:58:34.887Z,56.99
2023-04-01T09:01:41.084Z,57.42
2023-04-01T09:04:47.513Z,57.70
2023-04-01T09:07:43.501Z,56.62
2023-04-01T09:10:56.706Z,56.16
2023-04-01T09:14:18.712Z,55.08
2023-04-01T09:17:35.556Z,55.46
2023-04-01T09:20:30.490Z,56.74
2023-04-01T09:23:43.268Z,56.70
2023-04-01T09:26:47.074Z,57.47
2023-04-01T09:30:21.764Z,57.60
2023-04-01T09:33:35.119Z,57.82
2023-04-01T09:36:38.161Z,57.07
2023-04-01T09:39:36.910Z,57.25
2023-04-01T09:42:43.886Z,57.75
2023-04-01T09:45:50.909Z,58.15
2023-04-01T09:49:14.743Z,58.36
2023-04-01T09:52:20.228Z,59.35
2023-04-01T09:55:33.846Z,58.89
2023-04-01T09:58:56.291Z,58.23
2023-04-01T10:02:18.031Z,57.36
2023-04-01T10:05:55.821Z,57.47
2023-04-01T10:09:22.095Z,57.72
2023-04-01T10:12:33.857Z,57.94
2023-04-01T10:15:40.998Z,57.30
2023-04-01T10:18:57.952Z,55.70
2023-04-01T10:22:07.738Z,54.85
2023-04-01T10:25:09.725Z,54.99
2023-04-01T10:28:24.544Z,56.04
2023-04-01T10:31:52.849Z,56.49
2023-04-01T10:35:22.222Z,56.63
2023-04-01T10:38:42.195Z,56.78
2023-04-01T10:42:02.063Z,56.11
2023-04-01T10:45:38.865Z,55.34
2023-04-01T10:48:34.396Z,55.55
2023-04-01T10:51:46.678Z,55.92
2023-04-01T10:54:48.083Z,55.41
2023-04-01T11:12:38.683Z,50.92
2023-04-01T11:15:40.163Z,50.80
2023-04-01T11:19:08.619Z,50.44
2023-04-01T11:22:14.031Z,49.29
2023-04-01T11:25:43.118Z,47.44
2023-04-01T11:29:33.209Z,46.61
2023-04-01T11:32:37.000Z,46.69
2023-04-01T11:35:47.029Z,45.40
2023-04-01T11:39:05.467Z,45.13
2023-04-01T11:42:06.392Z,45.94
2023-04-01T11:45:10.855Z,46.79
2023-04-01T11:48:30.413Z,45.45
2023-04-01T11:51:48.475Z,46.19
2023-04-01T11:54:36.183Z,45.58
2023-04-01T11:57:38.241Z,44.82
2023-04-01T12:00:31.334Z,44.50
2023-04-01T12:03:33.559Z,44.35
2023-04-01T12:06:14.244Z,44.34
2023-04-01T12:08:54.688Z,43.56
2023-04-01T12:11:36.393Z,43.24
2023-04-01T12:14:29.276Z,43.86
2023-04-01T12:17:12.036Z,44.16
2023-04-01T12:19:53.436Z,44.54
2023-04-01T12:22:41.307Z,46.32
2023-04-01T12:25:31.976Z,46.79
2023-04-01T12:28:18.644Z,47.05
2023-04-01T12:31:00.788Z,46.32
2023-04-01T12:33:59.985Z,45.64
2023-04-01T12:37:00.925Z,46.02
2023-04-01T12:40:17.275Z,46.48
2023-04-01T12:43:02.849Z,46.87
2023-04-01T12:45:37.353Z,46.58
2023-04-01T12:48:39.754Z,46.73
2023-04-01T12:51:40.696Z,46.30
2023-04-01T12:54:51.459Z,45.53
2023-04-01T12:57:48.636Z,46.30
2023-04-01T13:00:38.256Z,46.66
2023-04-01T13:03:34.825Z,47.57
2023-04-01T13:06:31.873Z,48.48
2023-04-01T13:09:22.884Z,48.81
2023-04-01T13:12:39.661Z,49.03
2023-04-01T13:15:38.500Z,49.04
2023-04-01T13:18:24.426Z,49.74
2023-04-01T13:21:22.068Z,49.47
2023-04-01T13:24:32.213Z,49.52
2023-04-01T13:27:33.150Z,50.34
2023-04-01T13:30:30.677Z,50.64
2023-04-01T13:33:18.354Z,51.16
2023-04-01T13:36:30.744Z,51.52
2023-04-01T13:39:29.379Z,52.22
2023-04-01T13:42:21.436Z,52.65
2023-04-01T13:45:20.655Z,52.77
2023-04-01T13:48:35.468Z,53.14
2023-04-01T13:51:38.363Z,53.23
2023-04-01T13:54:35.219Z,53.12
2023-04-01T13:57:31.794Z,52.67
2023-04-01T14:00:35.430Z,52.46
2023-04-01T14:03:54.397Z,50.63
2023-04-01T14:07:01.951Z,49.93
2023-04-01T14:10:08.076Z,51.01
2023-04-01T14:13:10.106Z,50.89
2023-04-01T14:15:56.564Z,50.17
2023-04-01T14:19:05.820Z,50.13
2023-04-01T14:22:01.941Z,50.61
2023-04-01T14:25:20.522Z,51.17
2023-04-01T14:28:21.208Z,51.33
2023-04-01T14:31:42.461Z,52.01
2023-04-01T14:34:41.629Z,52.12
2023-04-01T14:37:39.908Z,51.52
2023-04-01T14:40:35.686Z,50.77
2023-04-01T14:44:16.237Z,50.69
2023-04-01T14:50:33.154Z,52.73
2023-04-01T14:53:32.010Z,52.41
2023-04-01T14:56:44.273Z,53.35
2023-04-01T15:06:14.427Z,55.49
2023-04-01T15:09:16.830Z,56.15
2023-04-01T15:12:15.438Z,56.98
2023-04-01T15:15:28.806Z,57.44
2023-04-01T15:18:34.017Z,57.80
2023-04-01T15:21:46.249Z,57.78
2023-04-01T15:24:49.174Z,57.80
2023-04-01T15:27:49.106Z,57.68
2023-04-01T15:30:41.515Z,57.36
2023-04-01T15:33:41.990Z,57.03
2023-04-01T15:36:32.249Z,56.65
2023-04-01T15:39:24.376Z,56.88
2023-04-01T15:42:22.115Z,56.68
2023-04-01T15:45:35.957Z,57.27
2023-04-01T15:48:42.046Z,58.34
2023-04-01T15:51:51.140Z,58.61
2023-04-01T15:55:03.467Z,58.80
2023-04-01T15:57:49.266Z,58.92
2023-04-01T16:00:53.632Z,58.88
2023-04-01T16:03:54.611Z,59.04
2023-04-01T16:07:04.474Z,59.53
2023-04-01T16:10:17.983Z,59.68
2023-04-01T16:13:16.287Z,59.80
2023-04-01T16:16:44.687Z,59.67
2023-04-01T16:19:48.555Z,59.20
2023-04-01T16:22:46.697Z,59.68
2023-04-01T16:25:48.470Z,60.65
2023-04-01T16:28:31.602Z,61.48
2023-04-01T16:31:29.366Z,62.81
2023-04-01T16:34:18.799Z,64.04
2023-04-01T16:37:17.921Z,64.23
2023-04-01T16:40:25.457Z,65.28
2023-04-01T16:43:27.959Z,69.43
2023-04-01T16:46:30.004Z,70.95
2023-04-01T16:49:43.089Z,72.10
2023-04-01T16:52:46.020Z,73.23
2023-04-01T16:55:54.077Z,73.96
2023-04-01T16:59:02.173Z,74.29
2023-04-01T17:01:59.092Z,74.81
2023-04-01T17:05:00.940Z,75.38
2023-04-01T17:08:08.716Z,75.79
2023-04-01T17:11:02.637Z,76.37
2023-04-01T17:14:04.857Z,76.78
2023-04-01T17:17:27.506Z,77.37
2023-04-01T17:20:37.154Z,77.48
2023-04-01T17:23:36.559Z,78.35
2023-04-01T17:26:28.988Z,78.44
2023-04-01T17:29:31.537Z,78.96
2023-04-01T17:32:28.283Z,79.40
2023-04-01T17:35:14.285Z,79.34
2023-04-01T17:38:22.266Z,79.27
2023-04-01T17:41:28.530Z,78.82
2023-04-01T17:44:34.281Z,78.46
2023-04-01T17:47:44.180Z,78.24
2023-04-01T17:50:54.192Z,78.32
2023-04-01T17:53:54.694Z,78.20
2023-04-01T17:56:47.076Z,78.45
2023-04-01T17:59:46.507Z,78.44
2023-04-01T18:02:50.857Z,78.88
2023-04-01T18:06:05.110Z,79.32
2023-04-01T18:09:04.940Z,79.34
2023-04-01T18:12:02.612Z,79.81
2023-04-01T18:15:20.544Z,80.28
2023-04-01T18:18:14.528Z,80.62
2023-04-01T18:21:17.328Z,80.85
2023-04-01T18:24:24.864Z,81.10
2023-04-01T18:27:26.254Z,80.95
2023-04-01T18:30:23.509Z,81.03
2023-04-01T18:33:26.190Z,81.23
2023-04-01T18:36:35.222Z,81.40
2023-04-01T18:39:53.917Z,81.93
2023-04-01T18:43:02.503Z,82.68
2023-04-01T18:46:03.148Z,82.99
2023-04-01T18:49:09.272Z,82.95
2023-04-01T18:52:12.059Z,83.01
2023-04-01T18:55:35.461Z,83.06
2023-04-01T18:58:38.215Z,83.01
2023-04-01T19:01:38.110Z,83.42
2023-04-01T19:04:23.326Z,83.48
2023-04-01T19:07:49.009Z,83.68
2023-04-01T19:10:48.943Z,83.85
2023-04-01T19:13:40.853Z,84.08
2023-04-01T19:16:30.051Z,83.88
2023-04-01T19:19:44.997Z,83.93
2023-04-01T19:23:04.771Z,83.67
2023-04-01T19:26:00.307Z,83.64
2023-04-01T19:29:15.630Z,83.71
2023-04-01T19:32:24.599Z,84.03
2023-04-01T19:35:35.429Z,84.22
2023-04-01T19:38:36.081Z,84.58
2023-04-01T19:41:39.210Z,84.77
2023-04-01T19:44:39.336Z,85.12
2023-04-01T19:47:55.886Z,85.43
2023-04-01T19:50:56.056Z,85.78
2023-04-01T19:53:56.361Z,86.30
2023-04-01T19:56:58.666Z,86.63
2023-04-01T19:59:58.024Z,86.94
2023-04-01T20:03:15.663Z,87.20
2023-04-01T20:06:19.313Z,87.26
2023-04-01T20:09:38.086Z,87.25
2023-04-01T20:12:22.333Z,87.03
2023-04-01T20:15:33.929Z,87.10
2023-04-01T20:18:35.875Z,87.05
2023-04-01T20:21:38.344Z,86.93
2023-04-01T20:24:36.424Z,86.73
2023-04-01T20:27:34.174Z,86.63
2023-04-01T20:30:52.535Z,86.56
2023-04-01T20:34:10.099Z,86.51
2023-04-01T20:37:23.454Z,86.53
2023-04-01T20:40:39.877Z,86.57
2023-04-01T20:43:52.251Z,86.65
2023-04-01T20:46:47.055Z,86.66
2023-04-01T20:49:48.986Z,86.98
2023-04-01T20:52:52.016Z,87.11
2023-04-01T20:56:30.748Z,87.30
2023-04-01T20:59:41.100Z,87.40
2023-04-01T21:03:01.124Z,87.54
2023-04-01T21:06:13.267Z,87.94
2023-04-01T21:09:08.291Z,87.80
2023-04-01T21:12:06.273Z,87.72
2023-04-01T21:15:36.130Z,87.77
2023-04-01T21:18:58.944Z,87.74
2023-04-01T21:22:17.586Z,87.78
2023-04-01T21:25:33.283Z,88.40
2023-04-01T21:28:40.894Z,88.54
2023-04-01T21:31:38.414Z,88.70
2023-04-01T21:34:44.427Z,88.94
2023-04-01T21:37:46.850Z,89.02
2023-04-01T21:41:12.456Z,89.40
2023-04-01T21:44:43.776Z,89.07
2023-04-01T21:47:51.427Z,89.27
2023-04-01T21:51:07.197Z,89.35
2023-04-01T21:54:24.436Z,89.28
2023-04-01T21:57:58.291Z,89.26
2023-04-01T22:00:45.228Z,89.35
2023-04-01T22:04:08.631Z,89.42
2023-04-01T22:06:49.949Z,89.60
2023-04-01T22:09:27.842Z,89.59
2023-04-01T22:12:09.275Z,89.69
2023-04-01T22:15:09.200Z,89.61
2023-04-01T22:18:08.998Z,89.66
2023-04-01T22:20:51.735Z,89.62
2023-04-01T22:23:34.138Z,89.57
2023-04-01T22:26:24.773Z,89.48
2023-04-01T22:29:08.832Z,89.60
2023-04-01T22:31:54.793Z,89.70
2023-04-01T22:34:52.147Z,89.80
2023-04-01T22:37:43.252Z,89.83
2023-04-01T22:40:42.295Z,89.88
2023-04-01T22:43:42.268Z,90.06
2023-04-01T22:46:50.146Z,90.15
2023-04-01T22:49:51.052Z,90.32
2023-04-01T22:52:46.888Z,90.27
2023-04-01T22:55:36.344Z,90.44
2023-04-01T22:58:36.811Z,90.49
2023-04-01T23:01:27.985Z,90.86
2023-04-01T23:04:18.896Z,91.19
2023-04-01T23:07:38.616Z,91.56
2023-04-01T23:10:22.079Z,91.74
2023-04-01T23:13:21.089Z,92.03
2023-04-01T23:16:15.209Z,92.23
2023-04-01T23:19:16.100Z,92.39
2023-04-01T23:22:13.833Z,92.46
2023-04-01T23:25:19.883Z,92.48
2023-04-01T23:28:39.119Z,92.57
2023-04-01T23:31:42.354Z,92.57
2023-04-01T23:34:37.439Z,92.84
2023-04-01T23:37:30.871Z,92.81
2023-04-01T23:40:19.003Z,92.86
2023-04-01T23:43:24.751Z,92.97
2023-04-01T23:46:17.938Z,92.98
2023-04-01T23:49:06.184Z,93.15
2023-04-01T23:51:55.697Z,92.89
2023-04-01T23:54:54.973Z,92.92
2023-04-01T23:58:09.562Z,92.81
